createdAt,value
2023-05-24T00:02:14.213Z,15.90
2023-05-24T00:04:45.344Z,15.80
2023-05-24T00:07:14.600Z,15.80
2023-05-24T00:09:43.760Z,15.80
2023-05-24T00:12:12.908Z,15.90
2023-05-24T00:14:42.061Z,15.90
2023-05-24T00:17:12.881Z,15.80
2023-05-24T00:19:42.939Z,15.90
2023-05-24T00:22:14.124Z,15.90
2023-05-24T00:24:43.288Z,15.90
2023-05-24T00:27:12.587Z,15.90
2023-05-24T00:29:41.807Z,15.90
2023-05-24T00:32:11.035Z,15.90
2023-05-24T00:34:40.497Z,15.90
2023-05-24T00:37:09.610Z,16.00
2023-05-24T00:39:38.737Z,16.00
2023-05-24T00:42:07.929Z,16.00
2023-05-24T00:44:37.067Z,15.90
2023-05-24T00:47:06.445Z,16.00
2023-05-24T00:49:37.201Z,16.00
2023-05-24T00:52:07.244Z,16.00
2023-05-24T00:54:36.431Z,16.00
2023-05-24T00:57:05.993Z,16.00
2023-05-24T00:59:36.121Z,16.00
2023-05-24T01:02:07.222Z,15.90
2023-05-24T01:04:38.211Z,15.90
2023-05-24T01:07:27.149Z,15.90
2023-05-24T01:10:11.695Z,15.90
2023-05-24T01:12:57.229Z,15.90
2023-05-24T01:15:35.626Z,15.90
2023-05-24T01:18:05.211Z,15.90
2023-05-24T01:20:38.562Z,15.90
2023-05-24T01:23:22.453Z,15.90
2023-05-24T01:25:51.538Z,15.90
2023-05-24T01:28:22.326Z,15.90
2023-05-24T01:30:56.087Z,15.90
2023-05-24T01:33:26.051Z,15.80
2023-05-24T01:35:55.384Z,15.80
2023-05-24T01:38:24.487Z,15.80
2023-05-24T01:41:05.721Z,15.80
2023-05-24T01:43:43.314Z,15.70
2023-05-24T01:46:39.036Z,15.80
2023-05-24T01:49:31.627Z,15.70
2023-05-24T01:52:05.438Z,15.70
2023-05-24T01:54:39.005Z,15.70
2023-05-24T01:57:10.314Z,15.70
2023-05-24T01:59:43.658Z,15.70
2023-05-24T02:02:12.879Z,15.70
2023-05-24T02:04:42.764Z,15.70
2023-05-24T02:07:12.179Z,15.70
2023-05-24T02:09:41.350Z,15.70
2023-05-24T02:12:11.050Z,15.70
2023-05-24T02:14:42.886Z,15.70
2023-05-24T02:17:12.258Z,15.70
2023-05-24T02:19:41.370Z,15.70
2023-05-24T02:22:10.553Z,15.80
2023-05-24T02:24:40.510Z,15.80
2023-05-24T02:27:09.711Z,15.80
2023-05-24T02:29:38.944Z,15.80
2023-05-24T02:32:08.075Z,15.80
2023-05-24T02:34:37.218Z,15.80
2023-05-24T02:37:06.405Z,15.80
2023-05-24T02:39:35.955Z,15.80
2023-05-24T02:42:06.001Z,15.80
2023-05-24T02:44:35.752Z,15.80
2023-05-24T02:47:05.518Z,15.80
2023-05-24T02:49:34.644Z,15.80
2023-05-24T02:52:03.893Z,15.80
2023-05-24T02:54:32.985Z,15.80
2023-05-24T02:57:02.872Z,15.90
2023-05-24T02:59:33.506Z,15.90
2023-05-24T03:02:02.928Z,15.80
2023-05-24T03:04:32.084Z,15.90
2023-05-24T03:07:01.496Z,15.90
2023-05-24T03:09:30.688Z,15.90
2023-05-24T03:11:59.754Z,15.80
2023-05-24T03:14:28.918Z,15.90
2023-05-24T03:16:58.182Z,15.90
2023-05-24T03:19:27.541Z,16.00
2023-05-24T03:21:57.490Z,15.90
2023-05-24T03:24:26.997Z,15.90
2023-05-24T03:26:56.155Z,16.00
2023-05-24T03:29:25.334Z,16.00
2023-05-24T03:31:56.031Z,16.00
2023-05-24T03:34:25.399Z,16.00
2023-05-24T03:36:54.616Z,16.10
2023-05-24T03:39:23.752Z,16.10
2023-05-24T03:42:22.691Z,16.10
2023-05-24T03:44:54.388Z,16.10
2023-05-24T03:47:23.541Z,16.20
2023-05-24T03:49:52.672Z,16.20
2023-05-24T03:52:21.819Z,16.20
2023-05-24T03:54:51.077Z,16.20
2023-05-24T03:57:20.154Z,16.20
2023-05-24T03:59:49.501Z,16.30
2023-05-24T04:02:18.787Z,16.30
2023-05-24T04:04:47.932Z,16.40
2023-05-24T04:07:17.084Z,16.50
2023-05-24T04:09:46.249Z,16.50
2023-05-24T04:12:15.376Z,16.50
2023-05-24T04:14:44.808Z,16.50
2023-05-24T04:17:15.585Z,16.50
2023-05-24T04:19:46.898Z,16.60
2023-05-24T04:22:16.188Z,16.70
2023-05-24T04:24:46.100Z,16.80
2023-05-24T04:27:15.352Z,16.90
2023-05-24T04:29:46.032Z,17.00
2023-05-24T04:32:15.482Z,17.10
2023-05-24T04:34:46.183Z,17.20
2023-05-24T04:37:17.320Z,17.30
2023-05-24T04:39:48.380Z,17.40
2023-05-24T04:42:17.655Z,17.50
2023-05-24T04:44:47.038Z,17.60
2023-05-24T04:47:16.405Z,17.70
2023-05-24T04:49:45.468Z,17.80
2023-05-24T04:52:15.068Z,18.00
2023-05-24T04:54:44.269Z,18.20
2023-05-24T04:57:13.428Z,18.50
2023-05-24T04:59:42.738Z,18.80
2023-05-24T05:02:12.137Z,19.00
2023-05-24T05:04:41.319Z,19.30
2023-05-24T05:07:10.403Z,19.50
2023-05-24T05:09:42.330Z,19.50
2023-05-24T05:12:11.574Z,19.50
2023-05-24T05:14:40.767Z,19.30
2023-05-24T05:17:09.925Z,19.10
2023-05-24T05:19:39.252Z,18.90
2023-05-24T05:22:08.439Z,18.70
2023-05-24T05:24:37.677Z,18.50
2023-05-24T05:27:06.825Z,18.40
2023-05-24T05:29:35.928Z,18.40
2023-05-24T05:32:05.469Z,18.40
2023-05-24T05:34:34.568Z,18.30
2023-05-24T05:38:50.530Z,18.30
2023-05-24T05:41:19.684Z,18.30
2023-05-24T05:43:48.892Z,18.50
2023-05-24T05:46:19.663Z,18.80
2023-05-24T05:48:49.330Z,19.10
2023-05-24T05:51:18.483Z,19.50
2023-05-24T05:53:47.596Z,19.90
2023-05-24T05:56:16.693Z,20.30
2023-05-24T05:58:45.829Z,20.20
2023-05-24T06:01:16.128Z,20.20
2023-05-24T06:03:45.613Z,20.10
2023-05-24T06:06:14.848Z,19.80
2023-05-24T06:08:43.928Z,19.70
2023-05-24T06:11:13.121Z,19.70
2023-05-24T06:13:42.308Z,19.80
2023-05-24T06:16:11.574Z,20.10
2023-05-24T06:18:47.416Z,20.60
2023-05-24T06:21:22.890Z,21.10
2023-05-24T06:23:52.059Z,21.00
2023-05-24T06:26:22.405Z,20.80
2023-05-24T06:28:51.710Z,20.80
2023-05-24T06:31:20.873Z,20.90
2023-05-24T06:34:02.530Z,20.70
2023-05-24T06:36:36.149Z,20.70
2023-05-24T06:39:05.454Z,20.70
2023-05-24T06:41:35.357Z,20.60
2023-05-24T06:44:04.646Z,20.50
2023-05-24T06:46:34.491Z,20.50
2023-05-24T06:49:03.891Z,20.50
2023-05-24T06:51:36.897Z,20.60
2023-05-24T06:54:06.762Z,20.80
2023-05-24T06:56:36.431Z,21.00
2023-05-24T06:59:06.030Z,21.10
2023-05-24T07:01:39.636Z,21.20
2023-05-24T07:04:09.854Z,21.40
2023-05-24T07:06:39.487Z,21.50
2023-05-24T07:09:10.386Z,21.70
2023-05-24T07:11:40.909Z,21.80
2023-05-24T07:14:10.352Z,21.90
2023-05-24T07:16:39.452Z,21.80
2023-05-24T07:19:08.608Z,21.70
2023-05-24T07:21:38.053Z,21.70
2023-05-24T07:24:07.290Z,22.00
2023-05-24T07:26:36.765Z,22.00
2023-05-24T07:29:05.849Z,22.00
2023-05-24T07:31:35.505Z,22.20
2023-05-24T07:34:04.649Z,22.50
2023-05-24T07:36:34.982Z,22.80
2023-05-24T07:39:06.338Z,23.00
2023-05-24T07:41:36.467Z,23.20
2023-05-24T07:44:05.875Z,23.30
2023-05-24T07:46:35.286Z,23.40
2023-05-24T07:49:04.474Z,23.50
2023-05-24T07:51:34.056Z,23.70
2023-05-24T07:54:03.379Z,23.90
2023-05-24T07:56:32.942Z,24.10
2023-05-24T07:59:04.887Z,24.20
2023-05-24T08:01:35.329Z,24.70
2023-05-24T08:04:04.555Z,25.00
2023-05-24T08:06:35.004Z,25.40
2023-05-24T08:09:05.318Z,25.40
2023-05-24T08:11:34.398Z,25.40
2023-05-24T08:14:03.739Z,25.30
2023-05-24T08:16:33.025Z,25.30
2023-05-24T08:19:02.262Z,25.30
2023-05-24T08:21:31.934Z,25.10
2023-05-24T08:24:01.144Z,24.80
2023-05-24T08:26:30.284Z,24.40
2023-05-24T08:28:59.486Z,24.50
2023-05-24T08:31:28.612Z,24.80
2023-05-24T08:33:58.334Z,24.80
2023-05-24T08:36:27.427Z,24.70
2023-05-24T08:38:56.841Z,24.80
2023-05-24T08:41:27.453Z,25.20
2023-05-24T08:44:00.385Z,25.20
2023-05-24T08:46:30.178Z,25.00
2023-05-24T08:49:00.239Z,24.90
2023-05-24T08:51:30.478Z,24.70
2023-05-24T08:54:01.385Z,24.80
2023-05-24T08:56:31.091Z,25.20
2023-05-24T08:59:00.237Z,25.40
2023-05-24T09:01:31.804Z,25.10
2023-05-24T09:04:03.306Z,25.30
2023-05-24T09:06:32.938Z,25.90
2023-05-24T09:09:03.426Z,26.20
2023-05-24T09:11:33.966Z,26.30
2023-05-24T09:14:03.308Z,26.30
2023-05-24T09:16:32.841Z,26.20
2023-05-24T09:19:02.422Z,25.90
2023-05-24T09:21:32.799Z,25.80
2023-05-24T09:24:02.141Z,26.10
2023-05-24T09:26:31.926Z,26.50
2023-05-24T09:29:01.116Z,26.80
2023-05-24T09:31:34.657Z,26.70
2023-05-24T09:34:04.060Z,26.80
2023-05-24T09:36:33.212Z,26.80
2023-05-24T09:39:12.228Z,27.40
2023-05-24T09:41:43.646Z,28.00
2023-05-24T09:44:15.182Z,28.50
2023-05-24T09:46:45.965Z,28.70
2023-05-24T09:49:15.152Z,28.40
2023-05-24T09:51:44.515Z,27.90
2023-05-24T09:54:15.077Z,27.20
2023-05-24T09:56:46.497Z,26.80
2023-05-24T09:59:15.605Z,26.30
2023-05-24T10:01:45.341Z,25.70
2023-05-24T10:04:14.643Z,25.50
2023-05-24T10:06:44.410Z,25.40
2023-05-24T10:09:14.496Z,25.50
2023-05-24T10:11:43.799Z,25.50
2023-05-24T10:14:13.030Z,25.70
2023-05-24T10:16:42.519Z,26.00
2023-05-24T10:19:12.001Z,26.00
2023-05-24T10:21:42.740Z,25.80
2023-05-24T10:24:13.719Z,26.20
2023-05-24T10:26:43.393Z,26.70
2023-05-24T10:29:24.553Z,27.00
2023-05-24T10:31:54.624Z,27.00
2023-05-24T10:34:24.070Z,27.10
2023-05-24T10:36:53.471Z,27.10
2023-05-24T10:39:22.902Z,26.70
2023-05-24T10:41:52.133Z,26.40
2023-05-24T10:44:22.243Z,26.40
2023-05-24T10:47:10.547Z,26.20
2023-05-24T10:49:52.866Z,26.30
2023-05-24T10:52:22.197Z,26.60
2023-05-24T10:55:09.677Z,26.80
2023-05-24T10:57:40.248Z,26.90
2023-05-24T11:00:35.317Z,26.80
2023-05-24T11:03:09.647Z,26.90
2023-05-24T11:05:48.773Z,27.00
2023-05-24T11:08:31.943Z,27.10
2023-05-24T11:13:46.167Z,27.60
2023-05-24T11:16:39.448Z,28.00
2023-05-24T11:19:37.389Z,28.20
2023-05-24T11:22:08.803Z,28.50
2023-05-24T11:24:38.390Z,28.80
2023-05-24T11:27:08.161Z,29.00
2023-05-24T11:29:41.669Z,29.30
2023-05-24T11:32:15.846Z,29.50
2023-05-24T11:34:48.933Z,29.50
2023-05-24T11:37:18.803Z,29.70
2023-05-24T11:39:54.413Z,29.80
2023-05-24T11:42:23.767Z,29.50
2023-05-24T11:44:53.676Z,29.20
2023-05-24T11:47:23.630Z,29.20
2023-05-24T11:49:52.979Z,28.70
2023-05-24T11:52:22.840Z,28.40
2023-05-24T11:54:52.357Z,28.30
2023-05-24T11:57:30.596Z,28.20
2023-05-24T11:59:59.725Z,28.10
2023-05-24T12:02:30.404Z,28.10
2023-05-24T12:05:09.782Z,27.80
2023-05-24T12:07:40.827Z,27.80
2023-05-24T12:10:12.306Z,27.40
2023-05-24T12:12:47.798Z,27.20
2023-05-24T12:15:18.586Z,27.00
2023-05-24T12:17:50.363Z,27.00
2023-05-24T12:20:20.505Z,27.20
2023-05-24T12:22:53.857Z,27.30
2023-05-24T12:25:27.072Z,27.20
2023-05-24T12:27:56.909Z,27.10
2023-05-24T12:30:27.248Z,26.80
2023-05-24T12:32:57.420Z,26.70
2023-05-24T12:35:26.530Z,27.30
2023-05-24T12:38:00.214Z,31.40
2023-05-24T12:40:33.559Z,34.20
2023-05-24T12:43:04.873Z,36.60
2023-05-24T12:45:34.784Z,36.70
2023-05-24T12:48:05.235Z,35.60
2023-05-24T12:50:34.979Z,35.70
2023-05-24T12:53:04.377Z,37.00
2023-05-24T12:55:33.514Z,36.70
2023-05-24T12:58:06.327Z,39.80
2023-05-24T13:00:35.656Z,41.70
2023-05-24T13:03:07.088Z,41.40
2023-05-24T13:05:36.420Z,37.90
2023-05-24T13:08:05.646Z,34.90
2023-05-24T13:10:34.881Z,33.60
2023-05-24T13:13:04.050Z,37.80
2023-05-24T13:15:33.229Z,41.90
2023-05-24T13:18:02.451Z,43.90
2023-05-24T13:20:31.737Z,43.20
2023-05-24T13:23:00.923Z,44.30
2023-05-24T13:25:30.197Z,46.80
2023-05-24T13:28:00.055Z,48.90
2023-05-24T13:30:29.226Z,50.50
2023-05-24T13:32:59.601Z,50.30
2023-05-24T13:35:29.738Z,48.60
2023-05-24T13:37:58.952Z,49.70
2023-05-24T13:40:28.637Z,50.30
2023-05-24T13:42:58.070Z,51.60
2023-05-24T13:45:27.640Z,52.20
2023-05-24T13:48:03.721Z,51.50
2023-05-24T13:50:34.305Z,51.60
2023-05-24T13:53:04.514Z,51.50
2023-05-24T13:55:36.096Z,51.80
2023-05-24T13:58:05.301Z,48.50
2023-05-24T14:00:36.297Z,44.90
2023-05-24T14:03:06.450Z,42.70
2023-05-24T14:05:36.016Z,42.50
2023-05-24T14:08:06.942Z,43.60
2023-05-24T14:10:37.324Z,41.20
2023-05-24T14:15:39.276Z,41.70
2023-05-24T14:18:08.940Z,44.80
2023-05-24T14:20:40.175Z,45.30
2023-05-24T14:23:10.173Z,43.60
2023-05-24T14:25:39.609Z,43.00
2023-05-24T14:28:08.949Z,43.90
2023-05-24T14:30:38.369Z,46.70
2023-05-24T14:33:08.590Z,49.00
2023-05-24T14:35:39.883Z,47.30
2023-05-24T14:38:10.919Z,41.80
2023-05-24T14:40:40.956Z,37.40
2023-05-24T14:43:10.943Z,34.10
2023-05-24T14:45:42.348Z,31.70
2023-05-24T14:48:12.654Z,30.10
2023-05-24T14:50:42.512Z,28.70
2023-05-24T14:53:14.869Z,27.60
2023-05-24T14:55:44.655Z,26.70
2023-05-24T14:58:14.411Z,25.90
2023-05-24T15:00:43.947Z,25.10
2023-05-24T15:03:14.762Z,24.40
2023-05-24T15:05:44.197Z,24.00
2023-05-24T15:08:13.686Z,23.50
2023-05-24T15:10:45.302Z,23.10
2023-05-24T15:13:14.760Z,22.80
2023-05-24T15:15:44.396Z,22.80
2023-05-24T15:18:13.695Z,22.70
2023-05-24T15:20:43.411Z,22.80
2023-05-24T15:23:13.376Z,22.90
2023-05-24T15:25:43.109Z,23.10
2023-05-24T15:28:14.624Z,23.30
2023-05-24T15:30:46.133Z,23.90
2023-05-24T15:33:17.034Z,25.70
2023-05-24T15:35:46.474Z,25.40
2023-05-24T15:38:17.678Z,24.80
2023-05-24T15:40:47.185Z,24.10
2023-05-24T15:43:18.735Z,23.70
2023-05-24T15:45:48.465Z,23.30
2023-05-24T15:48:17.628Z,23.00
2023-05-24T15:53:21.064Z,22.60
2023-05-24T15:55:51.659Z,22.30
2023-05-24T15:58:20.867Z,22.10
2023-05-24T16:00:51.103Z,21.90
2023-05-24T16:03:20.471Z,21.80
2023-05-24T16:05:50.572Z,21.70
2023-05-24T16:08:19.783Z,21.50
2023-05-24T16:10:49.352Z,21.30
2023-05-24T16:13:18.460Z,21.20
2023-05-24T16:15:51.694Z,20.90
2023-05-24T16:18:23.134Z,20.80
2023-05-24T16:20:52.956Z,20.70
2023-05-24T16:23:23.356Z,20.60
2023-05-24T16:25:52.573Z,20.50
2023-05-24T16:28:24.398Z,20.30
2023-05-24T16:30:57.414Z,20.20
2023-05-24T16:33:26.620Z,20.00
2023-05-24T16:35:55.951Z,19.60
2023-05-24T16:38:26.128Z,19.50
2023-05-24T16:40:55.395Z,19.50
2023-05-24T16:43:24.542Z,19.40
2023-05-24T16:45:55.225Z,19.40
2023-05-24T16:48:28.631Z,19.40
2023-05-24T16:50:58.417Z,19.30
2023-05-24T16:53:27.635Z,19.30
2023-05-24T16:55:58.028Z,19.20
2023-05-24T16:58:28.867Z,19.20
2023-05-24T17:00:58.736Z,19.10
2023-05-24T17:03:29.042Z,19.10
2023-05-24T17:06:03.527Z,19.10
2023-05-24T17:08:35.640Z,19.10
2023-05-24T17:11:05.546Z,19.10
2023-05-24T17:13:34.750Z,19.00
2023-05-24T17:16:04.321Z,19.10
2023-05-24T17:18:34.015Z,19.10
2023-05-24T17:21:04.898Z,19.00
2023-05-24T17:23:37.286Z,19.00
2023-05-24T17:26:08.324Z,19.00
2023-05-24T17:28:37.554Z,19.10
2023-05-24T17:31:07.994Z,19.10
2023-05-24T17:33:37.222Z,19.20
2023-05-24T17:36:06.605Z,19.20
2023-05-24T17:38:39.537Z,19.30
2023-05-24T17:41:09.912Z,19.20
2023-05-24T17:43:40.521Z,19.20
2023-05-24T17:46:10.090Z,19.30
2023-05-24T17:48:40.135Z,19.20
2023-05-24T17:51:10.473Z,19.20
2023-05-24T17:53:43.181Z,19.20
2023-05-24T17:56:13.133Z,19.20
2023-05-24T17:58:42.318Z,19.10
2023-05-24T18:01:12.155Z,19.00
2023-05-24T18:03:41.753Z,19.00
2023-05-24T18:06:11.096Z,18.90
2023-05-24T18:08:43.642Z,18.90
2023-05-24T18:11:14.013Z,18.90
2023-05-24T18:13:43.549Z,18.80
2023-05-24T18:16:13.331Z,18.80
2023-05-24T18:18:44.232Z,18.80
2023-05-24T18:21:13.606Z,18.70
2023-05-24T18:23:42.812Z,18.60
2023-05-24T18:26:12.269Z,18.60
2023-05-24T18:28:42.257Z,18.60
2023-05-24T18:31:11.834Z,18.50
2023-05-24T18:33:42.130Z,18.40
2023-05-24T18:36:12.764Z,18.40
2023-05-24T18:38:42.727Z,18.30
2023-05-24T18:41:12.299Z,18.30
2023-05-24T18:43:43.030Z,18.20
2023-05-24T18:46:13.905Z,18.10
2023-05-24T18:48:43.598Z,18.10
2023-05-24T18:51:12.990Z,18.10
2023-05-24T18:53:42.201Z,18.10
2023-05-24T18:56:11.364Z,18.00
2023-05-24T18:58:41.428Z,18.00
2023-05-24T19:01:10.803Z,18.00
2023-05-24T19:03:41.778Z,18.00
2023-05-24T19:06:11.020Z,17.90
2023-05-24T19:08:40.297Z,17.90
2023-05-24T19:11:11.287Z,17.80
2023-05-24T19:13:41.567Z,17.80
2023-05-24T19:16:17.524Z,17.70
2023-05-24T19:18:47.214Z,17.70
2023-05-24T19:21:16.551Z,17.70
2023-05-24T19:23:45.871Z,17.70
2023-05-24T19:26:18.097Z,17.60
2023-05-24T19:28:56.049Z,17.60
2023-05-24T19:31:25.758Z,17.50
2023-05-24T19:34:00.447Z,17.50
2023-05-24T19:36:32.982Z,17.50
2023-05-24T19:39:02.598Z,17.50
2023-05-24T19:41:31.833Z,17.40
2023-05-24T19:44:01.100Z,17.30
2023-05-24T19:46:30.511Z,17.30
2023-05-24T19:48:59.953Z,17.20
2023-05-24T19:51:29.416Z,17.20
2023-05-24T19:53:58.573Z,17.10
2023-05-24T19:56:27.841Z,17.10
2023-05-24T19:58:57.036Z,17.10
2023-05-24T20:01:26.345Z,17.10
2023-05-24T20:03:55.656Z,17.10
2023-05-24T20:06:24.834Z,17.10
2023-05-24T20:08:55.708Z,17.10
2023-05-24T20:11:25.126Z,17.10
2023-05-24T20:13:55.950Z,17.10
2023-05-24T20:16:25.772Z,17.00
2023-05-24T20:18:54.908Z,16.90
2023-05-24T20:21:24.116Z,16.80
2023-05-24T20:23:58.624Z,16.80
2023-05-24T20:26:28.262Z,16.70
2023-05-24T20:28:57.387Z,16.60
2023-05-24T20:31:26.554Z,16.60
2023-05-24T20:33:55.775Z,16.50
2023-05-24T20:36:24.975Z,16.50
2023-05-24T20:38:54.124Z,16.50
2023-05-24T20:41:23.441Z,16.40
2023-05-24T20:43:52.618Z,16.40
2023-05-24T20:46:22.813Z,16.30
2023-05-24T20:48:53.668Z,16.40
2023-05-24T20:51:23.205Z,16.50
2023-05-24T20:53:53.329Z,16.50
2023-05-24T20:56:23.276Z,16.60
2023-05-24T20:58:54.336Z,16.70
2023-05-24T21:01:24.120Z,16.70
2023-05-24T21:03:53.373Z,16.70
2023-05-24T21:06:23.210Z,16.70
2023-05-24T21:08:52.325Z,16.70
2023-05-24T21:11:21.639Z,16.70
2023-05-24T21:13:51.298Z,16.70
2023-05-24T21:16:20.426Z,16.80
2023-05-24T21:18:51.098Z,16.80
2023-05-24T21:21:20.523Z,16.80
2023-05-24T21:23:49.702Z,16.80
2023-05-24T21:26:18.842Z,16.80
2023-05-24T21:28:48.113Z,16.80
2023-05-24T21:31:17.315Z,16.70
2023-05-24T21:33:46.568Z,16.60
2023-05-24T21:36:15.692Z,16.50
2023-05-24T21:38:45.052Z,16.50
2023-05-24T21:41:14.188Z,16.40
2023-05-24T21:43:43.287Z,16.40
2023-05-24T21:46:12.426Z,16.50
2023-05-24T21:48:41.640Z,16.60
2023-05-24T21:51:10.779Z,16.60
2023-05-24T21:53:39.837Z,16.60
2023-05-24T21:56:08.991Z,16.70
2023-05-24T21:58:38.321Z,16.80
2023-05-24T22:01:08.706Z,16.80
2023-05-24T22:03:38.558Z,16.80
2023-05-24T22:06:08.258Z,16.90
2023-05-24T22:08:37.486Z,16.90
2023-05-24T22:11:06.726Z,16.80
2023-05-24T22:13:35.941Z,16.80
2023-05-24T22:16:05.418Z,16.80
2023-05-24T22:18:34.482Z,16.70
2023-05-24T22:21:03.632Z,16.50
2023-05-24T22:23:33.408Z,16.40
2023-05-24T22:26:02.544Z,16.20
2023-05-24T22:28:51.420Z,16.10
2023-05-24T22:31:21.690Z,16.00
2023-05-24T22:33:51.178Z,15.90
2023-05-24T22:36:20.994Z,15.80
2023-05-24T22:38:50.166Z,15.70
2023-05-24T22:41:19.382Z,15.70
2023-05-24T22:43:48.518Z,15.70
2023-05-24T22:46:17.801Z,15.70
2023-05-24T22:48:49.917Z,15.70
2023-05-24T22:51:19.930Z,15.70
2023-05-24T22:53:49.182Z,15.70
2023-05-24T22:56:18.313Z,15.70
2023-05-24T22:58:47.387Z,15.70
2023-05-24T23:01:16.822Z,15.70
2023-05-24T23:03:46.028Z,15.70
2023-05-24T23:06:15.654Z,15.70
2023-05-24T23:08:44.715Z,15.80
2023-05-24T23:11:17.384Z,15.90
2023-05-24T23:13:46.587Z,15.90
2023-05-24T23:16:18.533Z,16.00
2023-05-24T23:18:47.708Z,16.00
2023-05-24T23:21:17.004Z,16.10
2023-05-24T23:23:46.265Z,16.10
2023-05-24T23:26:15.674Z,16.20
2023-05-24T23:28:45.024Z,16.10
2023-05-24T23:31:14.478Z,16.00
2023-05-24T23:33:43.641Z,16.10
2023-05-24T23:36:12.947Z,16.10
2023-05-24T23:38:42.240Z,16.10
2023-05-24T23:41:11.343Z,16.10
2023-05-24T23:43:40.627Z,16.20
2023-05-24T23:46:10.709Z,16.20
2023-05-24T23:48:39.849Z,16.20
2023-05-24T23:51:10.634Z,16.30
2023-05-24T23:53:39.836Z,16.40
2023-05-24T23:56:09.024Z,16.30
2023-05-24T23:58:38.298Z,16.30
